createdAt,value
2023-01-19T00:02:23.971Z,2.52
2023-01-19T00:04:50.369Z,2.54
2023-01-19T00:07:17.049Z,2.51
2023-01-19T00:09:43.701Z,2.46
2023-01-19T00:12:10.269Z,2.51
2023-01-19T00:14:36.931Z,2.54
2023-01-19T00:17:03.374Z,2.47
2023-01-19T00:19:30.135Z,2.37
2023-01-19T00:21:56.482Z,2.39
2023-01-19T00:24:22.795Z,2.38
2023-01-19T00:26:49.191Z,2.37
2023-01-19T00:29:15.820Z,2.42
2023-01-19T00:31:42.209Z,2.36
2023-01-19T00:34:08.762Z,2.42
2023-01-19T00:36:35.187Z,2.37
2023-01-19T00:39:01.799Z,2.42
2023-01-19T00:41:47.290Z,2.43
2023-01-19T00:44:13.669Z,2.44
2023-01-19T00:46:39.986Z,2.51
2023-01-19T00:49:06.587Z,2.52
2023-01-19T00:51:33.267Z,2.48
2023-01-19T00:54:04.893Z,2.48
2023-01-19T00:56:31.745Z,2.61
2023-01-19T00:58:58.143Z,2.60
2023-01-19T01:01:45.579Z,2.60
2023-01-19T01:04:13.557Z,2.67
2023-01-19T01:06:40.161Z,2.72
2023-01-19T01:09:11.756Z,2.62
2023-01-19T01:11:39.647Z,2.63
2023-01-19T01:14:06.541Z,2.67
2023-01-19T01:16:33.539Z,2.67
2023-01-19T01:19:00.205Z,2.75
2023-01-19T01:21:27.185Z,2.71
2023-01-19T01:23:53.557Z,2.65
2023-01-19T01:26:19.944Z,2.72
2023-01-19T01:28:46.651Z,2.69
2023-01-19T01:31:13.118Z,2.79
2023-01-19T01:33:40.821Z,2.71
2023-01-19T01:36:09.174Z,2.71
2023-01-19T01:38:35.568Z,2.73
2023-01-19T01:41:02.012Z,2.80
2023-01-19T01:43:41.680Z,2.84
2023-01-19T01:46:08.317Z,2.83
2023-01-19T01:48:36.434Z,2.75
2023-01-19T01:51:24.039Z,2.82
2023-01-19T01:54:19.744Z,2.82
2023-01-19T01:56:47.728Z,2.85
2023-01-19T01:59:25.697Z,2.91
2023-01-19T02:02:12.443Z,2.89
2023-01-19T02:04:39.856Z,2.85
2023-01-19T02:07:25.024Z,2.85
2023-01-19T02:10:10.028Z,2.83
2023-01-19T02:12:55.227Z,2.84
2023-01-19T02:15:21.617Z,2.81
2023-01-19T02:17:48.356Z,2.88
2023-01-19T02:20:15.063Z,2.85
2023-01-19T02:22:47.460Z,2.82
2023-01-19T02:25:14.198Z,2.82
2023-01-19T02:27:40.805Z,2.80
2023-01-19T02:30:07.739Z,2.78
2023-01-19T02:32:34.469Z,2.69
2023-01-19T02:35:00.953Z,2.69
2023-01-19T02:37:29.047Z,2.66
2023-01-19T02:39:57.570Z,2.72
2023-01-19T02:42:27.275Z,2.63
2023-01-19T02:44:55.001Z,2.65
2023-01-19T02:47:21.451Z,2.67
2023-01-19T02:49:57.758Z,2.63
2023-01-19T02:52:24.507Z,2.67
2023-01-19T02:54:56.829Z,2.62
2023-01-19T02:57:35.163Z,2.64
2023-01-19T03:00:01.571Z,2.61
2023-01-19T03:02:35.922Z,2.52
2023-01-19T03:05:33.428Z,2.56
2023-01-19T03:08:00.038Z,2.55
2023-01-19T03:10:32.194Z,2.61
2023-01-19T03:13:10.384Z,2.58
2023-01-19T03:15:43.706Z,2.58
2023-01-19T03:18:12.392Z,2.56
2023-01-19T03:20:40.130Z,2.63
2023-01-19T03:23:08.781Z,2.63
2023-01-19T03:25:37.122Z,2.66
2023-01-19T03:28:04.036Z,2.70
2023-01-19T03:30:39.221Z,2.74
2023-01-19T03:33:09.251Z,2.78
2023-01-19T03:35:36.998Z,2.78
2023-01-19T03:38:05.641Z,2.83
2023-01-19T03:40:33.314Z,2.91
2023-01-19T03:43:01.265Z,3.01
2023-01-19T03:45:28.053Z,3.04
2023-01-19T03:47:54.955Z,3.12
2023-01-19T03:50:24.820Z,3.13
2023-01-19T03:53:09.087Z,3.22
2023-01-19T03:55:36.901Z,3.31
2023-01-19T03:58:03.416Z,3.38
2023-01-19T04:00:29.853Z,3.46
2023-01-19T04:02:56.169Z,3.55
2023-01-19T04:05:22.556Z,3.60
2023-01-19T04:07:52.348Z,3.67
2023-01-19T04:10:19.082Z,3.74
2023-01-19T04:12:45.806Z,3.79
2023-01-19T04:15:12.556Z,3.83
2023-01-19T04:17:39.283Z,3.85
2023-01-19T04:20:06.441Z,3.88
2023-01-19T04:22:32.911Z,3.92
2023-01-19T04:24:59.356Z,3.94
2023-01-19T04:27:26.066Z,3.98
2023-01-19T04:29:52.496Z,4.01
2023-01-19T04:32:18.830Z,4.05
2023-01-19T04:34:45.181Z,4.12
2023-01-19T04:37:11.569Z,4.20
2023-01-19T04:39:37.896Z,4.21
2023-01-19T04:42:04.309Z,4.22
2023-01-19T04:44:30.669Z,4.32
2023-01-19T04:46:57.102Z,4.35
2023-01-19T04:49:23.881Z,4.38
2023-01-19T04:51:53.480Z,4.45
2023-01-19T04:54:22.786Z,4.45
2023-01-19T04:56:49.369Z,4.50
2023-01-19T04:59:15.790Z,4.58
2023-01-19T05:01:42.165Z,4.61
2023-01-19T05:04:09.150Z,4.59
2023-01-19T05:06:35.530Z,4.61
2023-01-19T05:09:01.975Z,4.53
2023-01-19T05:11:28.309Z,4.66
2023-01-19T05:13:54.694Z,4.62
2023-01-19T05:16:21.114Z,4.63
2023-01-19T05:18:47.575Z,4.64
2023-01-19T05:21:13.943Z,4.74
2023-01-19T05:23:41.149Z,4.73
2023-01-19T05:26:09.490Z,4.77
2023-01-19T05:28:36.131Z,4.83
2023-01-19T05:31:02.570Z,4.87
2023-01-19T05:33:29.083Z,4.88
2023-01-19T05:35:55.485Z,4.93
2023-01-19T05:38:34.331Z,4.96
2023-01-19T05:41:01.472Z,4.92
2023-01-19T05:43:27.859Z,5.00
2023-01-19T05:45:54.203Z,5.00
2023-01-19T05:48:20.550Z,5.06
2023-01-19T05:50:49.294Z,5.06
2023-01-19T05:53:16.406Z,5.19
2023-01-19T05:55:43.030Z,5.21
2023-01-19T05:58:09.563Z,5.20
2023-01-19T06:00:36.061Z,5.24
2023-01-19T06:03:03.064Z,5.30
2023-01-19T06:05:29.872Z,5.30
2023-01-19T06:07:57.069Z,5.41
2023-01-19T06:10:23.556Z,5.30
2023-01-19T06:12:50.177Z,5.42
2023-01-19T06:15:16.894Z,5.44
2023-01-19T06:17:43.329Z,5.39
2023-01-19T06:20:10.142Z,5.55
2023-01-19T06:22:36.689Z,5.54
2023-01-19T06:25:03.031Z,5.47
2023-01-19T06:27:29.356Z,5.48
2023-01-19T06:29:56.025Z,5.56
2023-01-19T06:32:22.430Z,5.52
2023-01-19T06:34:48.774Z,5.54
2023-01-19T06:37:16.720Z,5.55
2023-01-19T06:39:45.114Z,5.62
2023-01-19T06:42:11.645Z,5.44
2023-01-19T06:44:38.171Z,5.43
2023-01-19T06:47:14.942Z,5.28
2023-01-19T06:49:42.234Z,5.43
2023-01-19T06:52:09.531Z,5.53
2023-01-19T06:54:35.944Z,5.47
2023-01-19T06:57:02.821Z,5.55
2023-01-19T06:59:29.937Z,5.55
2023-01-19T07:01:56.948Z,5.55
2023-01-19T07:04:23.446Z,5.54
2023-01-19T07:06:50.106Z,5.55
2023-01-19T07:09:17.097Z,5.56
2023-01-19T07:11:43.496Z,5.55
2023-01-19T07:14:09.912Z,5.51
2023-01-19T07:16:36.312Z,5.48
2023-01-19T07:19:02.681Z,5.41
2023-01-19T07:21:29.456Z,5.40
2023-01-19T07:23:55.945Z,5.40
2023-01-19T07:26:24.912Z,5.32
2023-01-19T07:28:52.096Z,5.30
2023-01-19T07:31:19.080Z,5.25
2023-01-19T07:33:46.084Z,5.27
2023-01-19T07:36:12.704Z,5.26
2023-01-19T07:38:39.104Z,5.23
2023-01-19T07:41:06.824Z,5.21
2023-01-19T07:43:33.962Z,5.22
2023-01-19T07:46:01.364Z,5.14
2023-01-19T07:48:28.189Z,5.11
2023-01-19T07:50:59.370Z,5.12
2023-01-19T07:53:25.799Z,5.12
2023-01-19T07:55:56.697Z,5.07
2023-01-19T07:58:23.630Z,5.01
2023-01-19T08:00:50.726Z,5.00
2023-01-19T08:03:17.792Z,4.96
2023-01-19T08:05:44.659Z,4.90
2023-01-19T08:08:12.690Z,4.88
2023-01-19T08:10:39.070Z,4.88
2023-01-19T08:13:05.562Z,4.88
2023-01-19T08:15:31.996Z,4.86
2023-01-19T08:17:59.454Z,4.87
2023-01-19T08:20:26.000Z,4.78
2023-01-19T08:22:59.845Z,4.78
2023-01-19T08:25:27.390Z,4.78
2023-01-19T08:27:54.658Z,4.73
2023-01-19T08:30:21.868Z,4.71
2023-01-19T08:32:48.514Z,4.68
2023-01-19T08:35:15.677Z,4.67
2023-01-19T08:37:42.063Z,4.67
2023-01-19T08:40:08.902Z,4.68
2023-01-19T08:42:35.245Z,4.68
2023-01-19T08:45:01.639Z,4.66
2023-01-19T08:47:28.275Z,4.70
2023-01-19T08:49:54.825Z,4.70
2023-01-19T08:52:21.207Z,4.69
2023-01-19T08:54:47.647Z,4.78
2023-01-19T08:57:15.355Z,4.88
2023-01-19T08:59:47.294Z,4.93
2023-01-19T09:02:13.670Z,5.00
2023-01-19T09:04:40.067Z,5.02
2023-01-19T09:09:39.636Z,5.06
2023-01-19T09:12:06.085Z,5.04
2023-01-19T09:14:32.513Z,5.04
2023-01-19T09:16:59.167Z,4.99
2023-01-19T09:19:25.573Z,5.02
2023-01-19T09:21:53.314Z,5.18
2023-01-19T09:24:19.659Z,5.23
2023-01-19T09:26:46.255Z,5.26
2023-01-19T09:29:12.759Z,5.30
2023-01-19T09:31:40.152Z,5.37
2023-01-19T09:34:06.677Z,5.34
2023-01-19T09:36:33.093Z,5.39
2023-01-19T09:38:59.469Z,5.34
2023-01-19T09:41:26.362Z,5.50
2023-01-19T09:43:56.100Z,5.60
2023-01-19T09:46:25.344Z,5.69
2023-01-19T09:48:53.006Z,5.80
2023-01-19T09:51:21.787Z,5.97
2023-01-19T09:53:51.368Z,6.04
2023-01-19T09:56:19.401Z,6.05
2023-01-19T09:58:46.796Z,6.19
2023-01-19T10:01:34.621Z,6.19
2023-01-19T10:04:16.240Z,6.37
2023-01-19T10:06:43.318Z,6.51
2023-01-19T10:09:24.741Z,6.71
2023-01-19T10:12:19.780Z,6.74
2023-01-19T10:14:49.953Z,6.92
2023-01-19T10:17:21.298Z,6.97
2023-01-19T10:19:50.005Z,7.27
2023-01-19T10:22:21.651Z,7.55
2023-01-19T10:24:50.350Z,7.55
2023-01-19T10:27:17.902Z,7.69
2023-01-19T10:29:45.082Z,7.80
2023-01-19T10:32:14.793Z,7.85
2023-01-19T10:34:41.760Z,8.08
2023-01-19T10:37:17.245Z,8.12
2023-01-19T10:39:52.249Z,8.33
2023-01-19T10:42:18.934Z,8.52
2023-01-19T10:44:45.876Z,8.47
2023-01-19T10:47:16.593Z,8.75
2023-01-19T10:49:43.181Z,8.70
2023-01-19T10:52:28.883Z,8.70
2023-01-19T10:54:55.673Z,8.85
2023-01-19T10:57:32.910Z,8.87
2023-01-19T10:59:59.345Z,8.81
2023-01-19T11:02:27.695Z,8.79
2023-01-19T11:04:58.697Z,8.88
2023-01-19T11:07:27.837Z,8.89
2023-01-19T11:10:12.912Z,8.95
2023-01-19T11:12:43.325Z,8.96
2023-01-19T11:15:23.380Z,9.20
2023-01-19T11:17:50.364Z,9.19
2023-01-19T11:20:24.809Z,9.43
2023-01-19T11:23:05.235Z,9.60
2023-01-19T11:25:33.301Z,9.61
2023-01-19T11:28:00.300Z,9.71
2023-01-19T11:30:26.805Z,9.85
2023-01-19T11:32:53.144Z,9.78
2023-01-19T11:35:33.906Z,9.68
2023-01-19T11:38:07.083Z,9.82
2023-01-19T11:40:34.770Z,9.98
2023-01-19T11:43:01.675Z,9.92
2023-01-19T11:45:28.365Z,9.95
2023-01-19T11:47:56.964Z,10.08
2023-01-19T11:50:23.505Z,9.96
2023-01-19T11:52:57.737Z,10.10
2023-01-19T11:55:30.007Z,10.04
2023-01-19T11:57:56.378Z,10.02
2023-01-19T12:00:29.070Z,9.86
2023-01-19T12:02:58.570Z,9.88
2023-01-19T12:05:27.652Z,10.01
2023-01-19T12:07:54.811Z,9.96
2023-01-19T12:10:29.276Z,9.99
2023-01-19T12:12:56.402Z,9.96
2023-01-19T12:15:26.628Z,10.14
2023-01-19T12:17:54.500Z,10.25
2023-01-19T12:20:23.579Z,10.19
2023-01-19T12:22:52.282Z,10.03
2023-01-19T12:25:22.760Z,10.25
2023-01-19T12:27:50.022Z,10.03
2023-01-19T12:30:17.142Z,10.31
2023-01-19T12:32:44.017Z,10.49
2023-01-19T12:35:30.935Z,10.32
2023-01-19T12:37:57.807Z,10.12
2023-01-19T12:40:24.123Z,9.85
2023-01-19T12:42:55.826Z,9.78
2023-01-19T12:45:25.451Z,9.63
2023-01-19T12:47:55.745Z,9.56
2023-01-19T12:50:25.573Z,9.46
2023-01-19T12:53:02.654Z,9.06
2023-01-19T12:55:30.992Z,8.88
2023-01-19T12:58:00.492Z,8.70
2023-01-19T13:00:31.348Z,8.58
2023-01-19T13:02:59.107Z,8.47
2023-01-19T13:05:25.581Z,8.35
2023-01-19T13:08:07.755Z,8.18
2023-01-19T13:11:13.768Z,8.13
2023-01-19T13:13:40.133Z,7.98
2023-01-19T13:16:18.666Z,7.92
2023-01-19T13:18:45.102Z,7.88
2023-01-19T13:21:12.030Z,7.94
2023-01-19T13:23:47.606Z,8.04
2023-01-19T13:26:15.538Z,7.95
2023-01-19T13:28:43.257Z,7.97
2023-01-19T13:31:10.384Z,7.89
2023-01-19T13:33:41.089Z,7.96
2023-01-19T13:36:15.227Z,8.01
2023-01-19T13:38:42.722Z,8.29
2023-01-19T13:41:09.274Z,8.45
2023-01-19T13:43:37.436Z,8.61
2023-01-19T13:46:04.193Z,8.66
2023-01-19T13:48:31.032Z,8.72
2023-01-19T13:50:58.870Z,8.95
2023-01-19T13:53:25.216Z,9.02
2023-01-19T13:56:16.513Z,8.85
2023-01-19T13:58:43.051Z,8.91
2023-01-19T14:01:22.192Z,8.93
2023-01-19T14:03:52.324Z,9.04
2023-01-19T14:06:37.451Z,9.00
2023-01-19T14:09:08.012Z,8.76
2023-01-19T14:11:34.760Z,8.59
2023-01-19T14:14:01.117Z,8.40
2023-01-19T14:16:27.585Z,8.35
2023-01-19T14:19:00.883Z,8.32
2023-01-19T14:21:36.746Z,8.20
2023-01-19T14:24:19.637Z,8.02
2023-01-19T14:26:46.665Z,8.00
2023-01-19T14:29:33.184Z,7.78
2023-01-19T14:32:14.784Z,7.66
2023-01-19T14:34:51.859Z,7.61
2023-01-19T14:37:21.249Z,7.52
2023-01-19T14:39:59.025Z,7.40
2023-01-19T14:42:30.517Z,7.37
2023-01-19T14:44:58.817Z,7.37
2023-01-19T14:47:27.245Z,7.41
2023-01-19T14:49:54.680Z,7.39
2023-01-19T14:52:29.978Z,7.45
2023-01-19T14:54:57.685Z,7.39
2023-01-19T14:57:25.908Z,7.30
2023-01-19T14:59:52.836Z,7.30
2023-01-19T15:02:19.349Z,7.33
2023-01-19T15:04:47.876Z,7.35
2023-01-19T15:07:18.877Z,7.35
2023-01-19T15:09:46.162Z,7.33
2023-01-19T15:12:17.258Z,7.31
2023-01-19T15:14:44.234Z,7.24
2023-01-19T15:17:15.632Z,7.26
2023-01-19T15:19:42.003Z,7.19
2023-01-19T15:22:12.332Z,7.13
2023-01-19T15:24:40.776Z,7.16
2023-01-19T15:27:13.259Z,7.21
2023-01-19T15:29:42.673Z,7.20
2023-01-19T15:32:11.716Z,7.11
2023-01-19T15:34:38.207Z,7.08
2023-01-19T15:37:04.878Z,6.97
2023-01-19T15:39:32.189Z,6.86
2023-01-19T15:41:58.812Z,6.76
2023-01-19T15:44:25.211Z,6.71
2023-01-19T15:46:53.865Z,6.62
2023-01-19T15:49:21.024Z,6.57
2023-01-19T15:51:47.375Z,6.53
2023-01-19T15:54:16.991Z,6.46
2023-01-19T15:56:43.428Z,6.41
2023-01-19T15:59:09.895Z,6.35
2023-01-19T16:01:36.619Z,6.27
2023-01-19T16:04:04.687Z,6.25
2023-01-19T16:06:31.278Z,6.19
2023-01-19T16:09:01.453Z,6.17
2023-01-19T16:11:29.150Z,6.16
2023-01-19T16:13:55.537Z,6.13
2023-01-19T16:16:23.389Z,6.07
2023-01-19T16:18:50.185Z,6.03
2023-01-19T16:21:16.977Z,6.04
2023-01-19T16:23:44.808Z,6.00
2023-01-19T16:26:29.880Z,5.91
2023-01-19T16:28:57.507Z,5.85
2023-01-19T16:31:23.979Z,5.80
2023-01-19T16:33:50.416Z,5.73
2023-01-19T16:36:28.013Z,5.73
2023-01-19T16:38:54.879Z,5.66
2023-01-19T16:41:21.343Z,5.64
2023-01-19T16:43:54.547Z,5.56
2023-01-19T16:46:25.911Z,5.50
2023-01-19T16:48:52.488Z,5.50
2023-01-19T16:51:19.292Z,5.43
2023-01-19T16:53:45.712Z,5.39
2023-01-19T16:56:13.284Z,5.37
2023-01-19T16:58:40.186Z,5.33
2023-01-19T17:01:11.518Z,5.48
2023-01-19T17:03:38.574Z,5.55
2023-01-19T17:06:08.421Z,5.39
2023-01-19T17:08:35.474Z,5.27
2023-01-19T17:11:08.101Z,5.23
2023-01-19T17:13:34.441Z,5.19
2023-01-19T17:16:01.572Z,5.12
2023-01-19T17:18:30.152Z,5.08
2023-01-19T17:21:02.257Z,5.03
2023-01-19T17:23:29.109Z,4.97
2023-01-19T17:25:55.787Z,4.91
2023-01-19T17:28:22.194Z,4.85
2023-01-19T17:30:51.217Z,4.79
2023-01-19T17:33:22.118Z,4.75
2023-01-19T17:35:49.039Z,4.70
2023-01-19T17:38:15.917Z,4.66
2023-01-19T17:40:42.455Z,4.60
2023-01-19T17:43:08.818Z,4.55
2023-01-19T17:45:36.257Z,4.48
2023-01-19T17:48:04.938Z,4.42
2023-01-19T17:50:37.080Z,4.31
2023-01-19T17:53:03.485Z,4.30
2023-01-19T17:55:29.812Z,4.25
2023-01-19T17:57:56.153Z,4.17
2023-01-19T18:00:22.776Z,4.13
2023-01-19T18:02:50.733Z,4.12
2023-01-19T18:05:17.517Z,4.06
2023-01-19T18:07:43.846Z,4.03
2023-01-19T18:10:10.837Z,4.01
2023-01-19T18:12:37.345Z,4.00
2023-01-19T18:15:04.489Z,3.97
2023-01-19T18:17:31.389Z,3.90
2023-01-19T18:19:57.993Z,3.85
2023-01-19T18:22:24.330Z,3.85
2023-01-19T18:24:50.706Z,3.84
2023-01-19T18:27:17.060Z,3.82
2023-01-19T18:29:43.673Z,3.80
2023-01-19T18:32:10.223Z,3.82
2023-01-19T18:34:36.894Z,3.80
2023-01-19T18:37:03.430Z,3.82
2023-01-19T18:39:32.717Z,3.84
2023-01-19T18:42:00.271Z,3.72
2023-01-19T18:44:26.709Z,3.65
2023-01-19T18:46:54.639Z,3.58
2023-01-19T18:49:21.040Z,3.57
2023-01-19T18:51:47.464Z,3.56
2023-01-19T18:54:13.934Z,3.55
2023-01-19T18:56:40.270Z,3.49
2023-01-19T18:59:06.717Z,3.48
2023-01-19T19:01:35.078Z,3.47
2023-01-19T19:04:01.663Z,3.48
2023-01-19T19:06:28.500Z,3.47
2023-01-19T19:08:56.095Z,3.49
2023-01-19T19:11:23.681Z,3.48
2023-01-19T19:13:54.015Z,3.40
2023-01-19T19:16:20.564Z,3.34
2023-01-19T19:18:50.056Z,3.35
2023-01-19T19:21:17.876Z,3.30
2023-01-19T19:23:44.331Z,3.26
2023-01-19T19:26:11.926Z,3.25
2023-01-19T19:28:39.229Z,3.23
2023-01-19T19:31:13.035Z,3.17
2023-01-19T19:33:39.890Z,3.13
2023-01-19T19:36:07.298Z,3.10
2023-01-19T19:38:33.816Z,3.01
2023-01-19T19:41:04.385Z,2.87
2023-01-19T19:43:34.212Z,2.85
2023-01-19T19:46:01.859Z,2.76
2023-01-19T19:48:28.601Z,2.80
2023-01-19T19:50:55.324Z,2.76
2023-01-19T19:53:22.216Z,2.74
2023-01-19T19:55:58.596Z,2.75
2023-01-19T19:58:25.612Z,2.76
2023-01-19T20:00:52.176Z,2.72
2023-01-19T20:03:18.989Z,2.74
2023-01-19T20:05:45.856Z,2.74
2023-01-19T20:08:12.354Z,2.81
2023-01-19T20:10:38.773Z,2.84
2023-01-19T20:13:07.008Z,2.79
2023-01-19T20:15:38.015Z,2.71
2023-01-19T20:18:07.617Z,2.74
2023-01-19T20:20:34.452Z,2.73
2023-01-19T20:23:01.600Z,2.66
2023-01-19T20:25:28.642Z,2.64
2023-01-19T20:27:55.619Z,2.64
2023-01-19T20:30:22.491Z,2.63
2023-01-19T20:32:49.017Z,2.56
2023-01-19T20:35:15.705Z,2.56
2023-01-19T20:37:42.106Z,2.49
2023-01-19T20:40:08.775Z,2.50
2023-01-19T20:42:36.689Z,2.49
2023-01-19T20:45:03.348Z,2.50
2023-01-19T20:47:29.713Z,2.54
2023-01-19T20:49:56.129Z,2.50
2023-01-19T20:52:22.559Z,2.52
2023-01-19T20:54:48.958Z,2.60
2023-01-19T20:57:15.349Z,2.62
2023-01-19T20:59:41.689Z,2.62
2023-01-19T21:02:12.399Z,2.65
2023-01-19T21:04:38.874Z,2.68
2023-01-19T21:07:05.367Z,2.74
2023-01-19T21:09:31.775Z,2.76
2023-01-19T21:11:58.203Z,2.74
2023-01-19T21:14:24.610Z,2.76
2023-01-19T21:16:51.056Z,2.78
2023-01-19T21:19:17.441Z,2.82
2023-01-19T21:21:43.790Z,2.84
2023-01-19T21:24:10.612Z,2.90
2023-01-19T21:26:37.072Z,2.91
2023-01-19T21:29:04.096Z,2.90
2023-01-19T21:31:30.848Z,2.87
2023-01-19T21:33:58.065Z,2.85
2023-01-19T21:36:24.796Z,2.89
2023-01-19T21:38:52.247Z,2.89
2023-01-19T21:41:18.921Z,2.91
2023-01-19T21:43:46.029Z,2.89
2023-01-19T21:46:22.560Z,2.85
2023-01-19T21:48:49.079Z,2.85
2023-01-19T21:51:15.705Z,2.77
2023-01-19T21:53:42.275Z,2.76
2023-01-19T21:56:09.502Z,2.73
2023-01-19T21:58:35.889Z,2.70
2023-01-19T22:01:04.109Z,2.71
2023-01-19T22:03:30.582Z,2.68
2023-01-19T22:05:57.012Z,2.57
2023-01-19T22:08:23.969Z,2.55
2023-01-19T22:10:50.316Z,2.60
2023-01-19T22:13:16.723Z,2.57
2023-01-19T22:15:43.099Z,2.56
2023-01-19T22:18:09.999Z,2.58
2023-01-19T22:20:36.349Z,2.59
2023-01-19T22:23:02.722Z,2.57
2023-01-19T22:25:29.103Z,2.57
2023-01-19T22:27:55.645Z,2.57
2023-01-19T22:30:22.068Z,2.56
2023-01-19T22:32:48.545Z,2.59
2023-01-19T22:35:15.436Z,2.60
2023-01-19T22:37:42.009Z,2.58
2023-01-19T22:40:08.705Z,2.59
2023-01-19T22:42:35.053Z,2.60
2023-01-19T22:45:01.384Z,2.60
2023-01-19T22:47:27.742Z,2.54
2023-01-19T22:49:54.112Z,2.53
2023-01-19T22:52:20.561Z,2.48
2023-01-19T22:54:46.958Z,2.36
2023-01-19T22:57:13.422Z,2.39
2023-01-19T22:59:39.874Z,2.41
2023-01-19T23:02:06.376Z,2.37
2023-01-19T23:04:32.824Z,2.34
2023-01-19T23:06:59.180Z,2.37
2023-01-19T23:09:25.560Z,2.38
2023-01-19T23:11:52.919Z,2.34
2023-01-19T23:14:20.695Z,2.30
2023-01-19T23:16:47.346Z,2.30
2023-01-19T23:19:14.270Z,2.31
2023-01-19T23:21:40.686Z,2.32
2023-01-19T23:24:07.563Z,2.29
2023-01-19T23:26:38.110Z,2.27
2023-01-19T23:29:06.813Z,2.26
2023-01-19T23:31:34.410Z,2.24
2023-01-19T23:34:02.203Z,2.23
2023-01-19T23:36:29.497Z,2.23
2023-01-19T23:38:57.264Z,2.23
2023-01-19T23:41:24.473Z,2.19
2023-01-19T23:43:51.400Z,2.04
2023-01-19T23:46:19.016Z,2.04
2023-01-19T23:48:45.633Z,2.05
2023-01-19T23:51:13.773Z,2.00
2023-01-19T23:53:40.243Z,1.95
2023-01-19T23:56:10.083Z,1.94
2023-01-19T23:58:36.436Z,1.91
